Terminal Aerodrome Forecast
Issued by NWS Northern Indiana

Home | Current Version | Previous Version | Text Only | Print | Product List | Glossary Off
Versions: 1 2 3 4 5 6 7 8 9 10 11 12 13 14 15 16 17 18

000
FTUS43 KIWX 251300 AAA
TAFFWA
TAF AMD
KFWA 251313Z 2513/2612 21010KT 4SM BR BKN007 OVC012
     FM251500 24014G20KT P6SM OVC012
     FM252000 26013KT P6SM SCT015
     FM260000 25005KT P6SM BKN080
     FM260900 35009KT 4SM -RA BR OVC015=

USA.gov is the U.S. government's official web portal to all federal, state and local government web resources and services.